createdAt,value
2016-10-25T00:00:17.969Z,0
2016-10-25T00:01:28.255Z,0
2016-10-25T00:02:38.626Z,0
2016-10-25T00:03:48.928Z,0
2016-10-25T00:04:59.441Z,0
2016-10-25T00:06:09.417Z,0
2016-10-25T00:07:19.718Z,0
2016-10-25T00:08:30.003Z,0
2016-10-25T00:09:40.327Z,0
2016-10-25T00:10:50.645Z,0
2016-10-25T00:12:00.634Z,0
2016-10-25T00:13:10.922Z,0
2016-10-25T00:14:20.904Z,0
2016-10-25T00:15:30.890Z,0
2016-10-25T00:16:40.556Z,0
2016-10-25T00:17:50.534Z,0
2016-10-25T00:19:00.516Z,0
2016-10-25T00:20:10.846Z,0
2016-10-25T00:21:20.530Z,0
2016-10-25T00:22:30.825Z,0
2016-10-25T00:23:40.800Z,0
2016-10-25T00:24:51.098Z,0
2016-10-25T00:26:01.087Z,0
2016-10-25T00:27:11.086Z,0
2016-10-25T00:28:21.378Z,0
2016-10-25T00:29:31.595Z,0
2016-10-25T00:30:41.886Z,0
2016-10-25T00:31:52.184Z,0
2016-10-25T00:33:01.871Z,0
2016-10-25T00:34:12.172Z,0
2016-10-25T00:35:22.477Z,0
2016-10-25T00:36:32.466Z,0
2016-10-25T00:37:42.138Z,0
2016-10-25T00:38:52.152Z,0
2016-10-25T00:40:02.177Z,0
2016-10-25T00:41:12.461Z,0
2016-10-25T00:42:22.455Z,0
2016-10-25T00:43:32.419Z,0
2016-10-25T00:44:42.397Z,0
2016-10-25T00:45:52.690Z,0
2016-10-25T00:47:02.693Z,0
2016-10-25T00:48:12.683Z,0
2016-10-25T00:49:22.662Z,0
2016-10-25T00:50:32.665Z,0
2016-10-25T00:51:42.323Z,0
2016-10-25T00:52:52.305Z,0
2016-10-25T00:54:02.286Z,0
2016-10-25T00:55:12.594Z,0
2016-10-25T00:56:22.883Z,0
2016-10-25T00:57:32.865Z,0
2016-10-25T00:58:43.152Z,0
2016-10-25T00:59:53.443Z,0
2016-10-25T01:01:03.726Z,0
2016-10-25T01:02:13.749Z,0
2016-10-25T01:03:24.039Z,0
2016-10-25T01:04:34.030Z,0
2016-10-25T01:05:43.390Z,0
2016-10-25T01:06:53.680Z,0
2016-10-25T01:08:03.665Z,0
2016-10-25T01:09:13.962Z,0
2016-10-25T01:10:23.940Z,0
2016-10-25T01:11:34.250Z,0
2016-10-25T01:12:43.933Z,0
2016-10-25T01:13:53.590Z,0
2016-10-25T01:15:03.561Z,0
2016-10-25T01:16:13.527Z,0
2016-10-25T01:17:23.514Z,0
2016-10-25T01:18:33.501Z,0
2016-10-25T01:19:43.864Z,0
2016-10-25T01:20:53.535Z,0
2016-10-25T01:22:03.526Z,0
2016-10-25T01:23:13.839Z,0
2016-10-25T01:24:23.873Z,0
2016-10-25T01:25:34.167Z,0
2016-10-25T01:26:44.453Z,0
2016-10-25T01:27:54.451Z,0
2016-10-25T01:29:04.112Z,0
2016-10-25T01:30:14.099Z,0
2016-10-25T01:31:23.469Z,0
2016-10-25T01:32:33.443Z,0
2016-10-25T01:33:43.747Z,0
2016-10-25T01:34:54.030Z,0
2016-10-25T01:36:04.342Z,0
2016-10-25T01:37:14.642Z,0
2016-10-25T01:38:24.358Z,0
2016-10-25T01:39:34.340Z,0
2016-10-25T01:40:44.338Z,0
2016-10-25T01:41:54.305Z,0
2016-10-25T01:43:04.278Z,0
2016-10-25T01:44:14.272Z,0
2016-10-25T01:45:24.565Z,0
2016-10-25T01:46:34.854Z,0
2016-10-25T01:47:45.139Z,0
2016-10-25T01:48:55.420Z,0
2016-10-25T01:50:05.082Z,0
2016-10-25T01:51:15.118Z,0
2016-10-25T01:52:25.402Z,0
2016-10-25T01:53:35.696Z,0
2016-10-25T01:54:45.973Z,0
2016-10-25T01:55:55.950Z,0
2016-10-25T01:57:06.257Z,0
2016-10-25T01:58:16.547Z,0
2016-10-25T01:59:26.826Z,0
2016-10-25T02:00:36.816Z,0
2016-10-25T02:01:46.804Z,0
2016-10-25T02:02:56.794Z,0
2016-10-25T02:04:07.089Z,0
2016-10-25T02:05:17.064Z,0
2016-10-25T02:06:27.361Z,0
2016-10-25T02:07:37.668Z,0
2016-10-25T02:08:47.344Z,0
2016-10-25T02:09:57.361Z,0
2016-10-25T02:11:06.731Z,0
2016-10-25T02:12:17.053Z,0
2016-10-25T02:13:27.348Z,0
2016-10-25T02:14:37.042Z,0
2016-10-25T02:15:47.024Z,0
2016-10-25T02:16:57.005Z,0
2016-10-25T02:18:06.709Z,0
2016-10-25T02:19:15.760Z,0
2016-10-25T02:20:25.740Z,0
2016-10-25T02:21:35.420Z,0
2016-10-25T02:22:45.703Z,0
2016-10-25T02:23:55.990Z,0
2016-10-25T02:25:05.971Z,0
2016-10-25T02:26:16.262Z,0
2016-10-25T02:27:26.592Z,0
2016-10-25T02:28:36.888Z,0
2016-10-25T02:29:47.183Z,0
2016-10-25T02:30:57.171Z,0
2016-10-25T02:32:06.841Z,0
2016-10-25T02:33:16.818Z,0
2016-10-25T02:34:27.101Z,0
2016-10-25T02:35:37.386Z,0
2016-10-25T02:36:47.665Z,0
2016-10-25T02:37:57.955Z,0
2016-10-25T02:39:07.981Z,0
2016-10-25T02:40:18.267Z,0
2016-10-25T02:41:28.242Z,0
2016-10-25T02:42:38.521Z,0
2016-10-25T02:43:48.518Z,0
2016-10-25T02:44:58.538Z,0
2016-10-25T02:46:08.828Z,0
2016-10-25T02:47:18.818Z,0
2016-10-25T02:48:29.116Z,0
2016-10-25T02:49:39.419Z,0
2016-10-25T02:50:49.700Z,0
2016-10-25T02:51:59.676Z,0
2016-10-25T02:53:09.977Z,0
2016-10-25T02:54:20.318Z,0
2016-10-25T02:55:30.603Z,0
2016-10-25T02:56:40.608Z,0
2016-10-25T02:57:50.584Z,0
2016-10-25T02:59:00.261Z,0
2016-10-25T03:00:10.277Z,0
2016-10-25T03:01:20.272Z,0
2016-10-25T03:32:49.211Z,0
2016-10-25T03:33:59.485Z,0
2016-10-25T03:35:09.754Z,0
2016-10-25T03:36:19.432Z,0
2016-10-25T03:37:29.749Z,0
2016-10-25T03:38:39.438Z,0
2016-10-25T03:39:49.426Z,0
2016-10-25T03:40:59.698Z,0
2016-10-25T03:42:09.970Z,0
2016-10-25T03:43:19.947Z,0
2016-10-25T03:44:29.946Z,0
2016-10-25T03:45:39.920Z,0
2016-10-25T03:46:49.588Z,0
2016-10-25T03:47:59.612Z,0
2016-10-25T03:49:09.901Z,0
2016-10-25T03:50:19.579Z,0
2016-10-25T03:51:29.867Z,0
2016-10-25T03:52:39.875Z,0
2016-10-25T03:53:49.236Z,0
2016-10-25T03:54:59.001Z,0
2016-10-25T03:56:09.285Z,0
2016-10-25T03:57:19.578Z,0
2016-10-25T03:58:29.548Z,0
2016-10-25T03:59:39.519Z,0
2016-10-25T04:00:49.183Z,0
2016-10-25T04:01:59.168Z,0
2016-10-25T04:03:09.450Z,0
2016-10-25T04:04:19.427Z,0
2016-10-25T04:05:29.752Z,0
2016-10-25T04:06:39.739Z,0
2016-10-25T04:07:49.417Z,0
2016-10-25T04:08:59.713Z,0
2016-10-25T04:10:09.719Z,0
2016-10-25T04:11:20.011Z,0
2016-10-25T04:12:30.303Z,0
2016-10-25T04:13:40.657Z,0
2016-10-25T04:14:50.682Z,0
2016-10-25T04:16:00.963Z,0
2016-10-25T04:17:11.255Z,0
2016-10-25T04:18:21.547Z,0
2016-10-25T04:19:31.858Z,0
2016-10-25T04:20:41.840Z,0
2016-10-25T04:21:52.121Z,0
2016-10-25T04:23:02.094Z,0
2016-10-25T04:24:12.067Z,0
2016-10-25T04:25:22.362Z,0
2016-10-25T04:26:32.655Z,0
2016-10-25T04:27:42.627Z,0
2016-10-25T04:28:52.647Z,0
2016-10-25T04:30:02.325Z,0
2016-10-25T04:31:12.301Z,0
2016-10-25T04:32:22.298Z,0
2016-10-25T04:33:32.274Z,0
2016-10-25T04:34:42.585Z,0
2016-10-25T04:35:52.868Z,0
2016-10-25T04:37:03.155Z,0
2016-10-25T04:38:13.443Z,0
2016-10-25T04:39:23.137Z,0
2016-10-25T04:40:33.441Z,0
2016-10-25T04:41:43.120Z,0
2016-10-25T04:42:53.443Z,0
2016-10-25T04:44:03.735Z,0
2016-10-25T04:45:14.030Z,0
2016-10-25T04:46:24.027Z,0
2016-10-25T04:47:33.701Z,0
2016-10-25T04:48:43.670Z,0
2016-10-25T04:49:53.702Z,0
2016-10-25T04:51:03.989Z,0
2016-10-25T04:52:13.368Z,0
2016-10-25T04:53:23.348Z,0
2016-10-25T04:54:33.330Z,0
2016-10-25T04:55:43.621Z,0
2016-10-25T04:56:52.994Z,0
2016-10-25T04:58:02.664Z,0
2016-10-25T04:59:12.635Z,0
2016-10-25T05:00:22.619Z,0
2016-10-25T05:01:32.615Z,0
2016-10-25T05:02:42.906Z,0
2016-10-25T05:03:53.193Z,0
2016-10-25T05:05:02.852Z,0
2016-10-25T05:06:12.842Z,4
2016-10-25T05:07:22.822Z,4
2016-10-25T05:08:32.880Z,4
2016-10-25T05:09:43.173Z,0
2016-10-25T05:10:53.164Z,0
2016-10-25T05:12:03.451Z,4
2016-10-25T05:13:13.742Z,4
2016-10-25T05:14:24.063Z,4
2016-10-25T05:15:34.030Z,4
2016-10-25T05:16:43.728Z,4
2016-10-25T05:17:54.019Z,8
2016-10-25T05:19:04.317Z,8
2016-10-25T05:20:14.613Z,12
2016-10-25T05:21:24.939Z,12
2016-10-25T05:22:34.628Z,12
2016-10-25T05:23:44.634Z,12
2016-10-25T05:24:54.909Z,16
2016-10-25T05:26:05.205Z,16
2016-10-25T05:27:15.507Z,16
2016-10-25T05:28:25.804Z,16
2016-10-25T05:29:35.465Z,16
2016-10-25T05:30:45.458Z,20
2016-10-25T05:31:55.444Z,20
2016-10-25T05:33:05.101Z,20
2016-10-25T05:34:15.079Z,24
2016-10-25T05:35:25.358Z,32
2016-10-25T05:36:35.626Z,36
2016-10-25T05:37:45.909Z,44
2016-10-25T05:38:56.209Z,52
2016-10-25T05:40:05.876Z,60
2016-10-25T05:41:15.594Z,64
2016-10-25T05:42:25.574Z,72
2016-10-25T05:43:35.556Z,76
2016-10-25T05:44:44.921Z,80
2016-10-25T05:45:54.940Z,80
2016-10-25T05:47:05.226Z,84
2016-10-25T05:48:15.520Z,88
2016-10-25T05:49:25.809Z,92
2016-10-25T05:50:35.806Z,100
2016-10-25T05:51:45.807Z,116
2016-10-25T05:52:56.094Z,132
2016-10-25T05:54:06.378Z,140
2016-10-25T05:55:16.663Z,144
2016-10-25T05:56:26.981Z,148
2016-10-25T05:57:37.278Z,148
2016-10-25T05:58:47.558Z,152
2016-10-25T05:59:57.836Z,168
2016-10-25T06:01:08.111Z,192
2016-10-25T06:02:18.398Z,220
2016-10-25T06:03:28.375Z,240
2016-10-25T06:04:38.353Z,260
2016-10-25T06:05:48.653Z,288
2016-10-25T06:06:58.972Z,300
2016-10-25T06:08:09.252Z,300
2016-10-25T06:09:19.583Z,288
2016-10-25T06:10:29.245Z,284
2016-10-25T06:11:38.903Z,292
2016-10-25T06:12:48.889Z,288
2016-10-25T06:13:59.171Z,272
2016-10-25T06:15:08.830Z,260
2016-10-25T06:16:18.802Z,248
2016-10-25T06:17:29.092Z,264
2016-10-25T06:18:39.057Z,284
2016-10-25T06:19:49.029Z,296
2016-10-25T06:20:59.005Z,304
2016-10-25T06:22:08.677Z,308
2016-10-25T06:23:18.973Z,328
2016-10-25T06:24:29.259Z,340
2016-10-25T06:25:39.250Z,352
2016-10-25T06:26:49.230Z,364
2016-10-25T06:27:59.505Z,368
2016-10-25T06:29:09.788Z,352
2016-10-25T06:30:20.075Z,332
2016-10-25T06:31:29.441Z,308
2016-10-25T06:32:39.424Z,292
2016-10-25T06:33:49.714Z,276
2016-10-25T06:34:59.995Z,252
2016-10-25T06:36:09.969Z,252
2016-10-25T06:37:19.649Z,252
2016-10-25T06:38:29.938Z,256
2016-10-25T06:39:39.609Z,280
2016-10-25T06:40:48.984Z,304
2016-10-25T06:41:58.966Z,320
2016-10-25T06:43:08.644Z,360
2016-10-25T06:44:18.620Z,392
2016-10-25T06:45:27.997Z,424
2016-10-25T06:46:38.002Z,448
2016-10-25T06:47:48.003Z,524
2016-10-25T06:48:57.682Z,624
2016-10-25T06:50:07.378Z,684
2016-10-25T06:51:17.366Z,776
2016-10-25T06:52:27.656Z,1016
2016-10-25T06:53:37.648Z,1168
2016-10-25T06:54:48.004Z,1256
2016-10-25T06:55:57.981Z,1268
2016-10-25T06:57:08.003Z,1328
2016-10-25T06:58:17.977Z,1424
2016-10-25T06:59:28.331Z,1504
2016-10-25T07:00:38.599Z,1784
2016-10-25T07:01:48.889Z,2020
2016-10-25T07:02:59.178Z,2208
2016-10-25T07:04:09.156Z,2432
2016-10-25T07:05:19.445Z,2328
2016-10-25T07:06:29.107Z,1908
2016-10-25T07:07:38.804Z,1672
2016-10-25T07:08:48.795Z,1456
2016-10-25T07:09:59.097Z,1180
2016-10-25T07:11:09.084Z,960
2016-10-25T07:12:18.760Z,904
2016-10-25T07:13:29.063Z,888
2016-10-25T07:14:39.349Z,836
2016-10-25T07:15:49.673Z,852
2016-10-25T07:16:59.653Z,856
2016-10-25T07:18:09.714Z,808
2016-10-25T07:19:20.007Z,780
2016-10-25T07:20:30.343Z,844
2016-10-25T07:21:40.659Z,952
2016-10-25T07:22:50.939Z,1024
2016-10-25T07:24:01.223Z,1108
2016-10-25T07:25:11.514Z,1292
2016-10-25T07:26:21.190Z,1716
2016-10-25T07:27:31.182Z,2280
2016-10-25T07:28:41.478Z,2732
2016-10-25T07:29:51.453Z,3236
2016-10-25T07:31:01.448Z,3220
2016-10-25T07:32:11.425Z,3428
2016-10-25T07:33:21.404Z,2592
2016-10-25T07:34:31.693Z,2328
2016-10-25T07:35:41.980Z,2060
2016-10-25T07:36:51.976Z,1740
2016-10-25T07:38:01.651Z,1564
2016-10-25T07:39:11.934Z,1644
2016-10-25T07:40:21.606Z,1988
2016-10-25T07:41:31.280Z,2380
2016-10-25T07:42:41.294Z,2188
2016-10-25T07:43:51.582Z,1780
2016-10-25T07:45:01.873Z,1488
2016-10-25T07:46:11.861Z,1476
2016-10-25T07:47:22.148Z,1736
2016-10-25T07:48:32.444Z,2032
2016-10-25T07:49:42.125Z,2612
2016-10-25T07:50:52.408Z,2780
2016-10-25T07:52:01.459Z,2820
2016-10-25T07:53:11.761Z,3012
2016-10-25T07:54:21.759Z,3152
2016-10-25T07:55:32.049Z,3192
2016-10-25T07:56:42.345Z,3400
2016-10-25T07:57:52.650Z,3376
2016-10-25T07:59:02.630Z,3380
2016-10-25T08:00:12.602Z,3488
2016-10-25T08:01:22.577Z,3716
2016-10-25T08:02:32.857Z,3860
2016-10-25T08:03:42.843Z,4008
2016-10-25T08:04:53.172Z,4232
2016-10-25T08:06:03.514Z,4704
2016-10-25T08:07:13.807Z,4788
2016-10-25T08:08:24.102Z,4544
2016-10-25T08:09:34.407Z,4932
2016-10-25T08:10:44.387Z,5124
2016-10-25T08:11:54.374Z,5360
2016-10-25T08:13:04.654Z,3864
2016-10-25T08:14:14.950Z,2708
2016-10-25T08:15:25.239Z,3040
2016-10-25T08:16:35.579Z,4228
2016-10-25T08:17:45.591Z,4588
2016-10-25T08:18:55.313Z,4740
2016-10-25T08:20:05.604Z,4624
2016-10-25T08:21:15.586Z,5136
2016-10-25T08:22:25.577Z,5140
2016-10-25T08:23:35.865Z,5332
2016-10-25T08:24:45.861Z,5804
2016-10-25T08:25:56.150Z,6364
2016-10-25T08:27:06.426Z,6368
2016-10-25T08:28:16.411Z,5740
2016-10-25T08:29:26.703Z,6036
2016-10-25T08:30:36.684Z,5768
2016-10-25T08:31:46.658Z,5712
2016-10-25T08:32:56.684Z,6004
2016-10-25T08:34:06.678Z,5556
2016-10-25T08:35:16.972Z,5752
2016-10-25T08:36:26.963Z,6624
2016-10-25T08:37:36.940Z,5952
2016-10-25T08:38:47.228Z,6240
2016-10-25T08:39:57.514Z,6116
2016-10-25T08:41:07.499Z,6952
2016-10-25T08:42:16.863Z,7472
2016-10-25T08:43:27.152Z,7708
2016-10-25T08:44:37.126Z,8012
2016-10-25T08:45:47.427Z,9008
2016-10-25T08:46:57.417Z,9840
2016-10-25T08:48:07.426Z,10288
2016-10-25T08:49:17.433Z,10624
2016-10-25T08:50:27.419Z,10160
2016-10-25T08:51:37.739Z,9488
2016-10-25T08:52:48.088Z,9340
2016-10-25T08:53:58.068Z,9200
2016-10-25T08:55:08.369Z,8240
2016-10-25T08:56:18.665Z,6804
2016-10-25T08:57:28.657Z,7396
2016-10-25T08:58:38.954Z,5444
2016-10-25T08:59:49.246Z,5868
2016-10-25T09:00:58.614Z,7324
2016-10-25T09:02:08.906Z,8972
2016-10-25T09:03:18.894Z,7308
2016-10-25T09:04:28.878Z,7064
2016-10-25T09:05:38.550Z,6924
2016-10-25T09:06:48.535Z,7188
2016-10-25T09:07:58.525Z,7480
2016-10-25T09:09:08.206Z,7868
2016-10-25T09:10:18.221Z,9904
2016-10-25T09:11:27.903Z,9756
2016-10-25T09:12:38.208Z,8808
2016-10-25T09:13:48.522Z,8148
2016-10-25T09:14:58.519Z,7968
2016-10-25T09:16:08.837Z,8144
2016-10-25T09:17:18.507Z,10016
2016-10-25T09:18:27.877Z,10940
2016-10-25T09:19:37.905Z,10648
2016-10-25T09:20:47.887Z,10296
2016-10-25T09:21:57.870Z,10184
2016-10-25T09:23:07.861Z,9300
2016-10-25T09:24:18.157Z,10192
2016-10-25T09:25:28.453Z,8748
2016-10-25T09:26:38.751Z,9920
2016-10-25T09:27:49.052Z,7820
2016-10-25T09:28:59.036Z,8136
2016-10-25T09:30:08.722Z,10660
2016-10-25T09:31:18.713Z,9072
2016-10-25T09:32:29.034Z,10592
2016-10-25T09:33:38.740Z,6900
2016-10-25T09:34:48.721Z,7012
2016-10-25T09:35:58.687Z,6832
2016-10-25T09:37:08.985Z,6548
2016-10-25T09:38:18.367Z,6672
2016-10-25T09:39:28.374Z,6564
2016-10-25T09:40:38.669Z,6492
2016-10-25T09:41:48.668Z,6424
2016-10-25T09:42:58.696Z,6272
2016-10-25T09:44:08.996Z,6340
2016-10-25T09:45:18.977Z,6336
2016-10-25T09:46:34.250Z,6340
2016-10-25T09:47:46.808Z,6240
2016-10-25T09:49:02.700Z,5956
2016-10-25T09:50:19.487Z,5884
2016-10-25T09:51:32.009Z,6068
2016-10-25T09:52:42.985Z,6380
2016-10-25T09:53:52.665Z,6560
2016-10-25T09:55:02.686Z,6656
2016-10-25T09:56:12.678Z,6772
2016-10-25T09:57:22.984Z,6824
2016-10-25T09:58:33.346Z,6596
2016-10-25T09:59:43.673Z,6468
2016-10-25T10:00:53.356Z,6272
2016-10-25T10:02:03.656Z,6144
2016-10-25T10:03:13.988Z,6136
2016-10-25T10:04:24.289Z,6272
2016-10-25T10:05:34.589Z,6476
2016-10-25T10:06:44.888Z,6732
2016-10-25T10:07:55.218Z,6656
2016-10-25T10:09:04.906Z,6736
2016-10-25T10:10:14.914Z,7320
2016-10-25T10:11:24.914Z,7104
2016-10-25T10:12:34.896Z,7040
2016-10-25T10:13:45.208Z,7116
2016-10-25T10:14:55.511Z,6912
2016-10-25T10:16:05.537Z,6736
2016-10-25T10:17:15.854Z,6504
2016-10-25T10:18:25.843Z,6360
2016-10-25T10:19:36.161Z,6328
2016-10-25T10:20:46.478Z,6352
2016-10-25T10:21:56.777Z,6428
2016-10-25T10:23:06.767Z,6544
2016-10-25T10:24:17.086Z,6660
2016-10-25T10:25:27.096Z,7812
2016-10-25T10:26:36.767Z,7216
2016-10-25T10:27:47.113Z,7676
2016-10-25T10:28:57.456Z,8164
2016-10-25T10:30:07.452Z,7852
2016-10-25T10:31:17.452Z,8080
2016-10-25T10:32:27.771Z,7412
2016-10-25T10:33:38.082Z,7200
2016-10-25T10:34:48.084Z,6900
2016-10-25T10:35:58.396Z,6516
2016-10-25T10:37:08.422Z,6196
2016-10-25T10:38:33.010Z,5876
2016-10-25T10:39:43.303Z,5768
2016-10-25T10:40:53.292Z,5720
2016-10-25T10:42:03.603Z,5368
2016-10-25T10:43:13.914Z,4892
2016-10-25T10:44:23.915Z,4644
2016-10-25T10:45:33.960Z,4344
2016-10-25T10:46:44.261Z,4048
2016-10-25T10:47:53.935Z,3984
2016-10-25T10:49:04.249Z,4072
2016-10-25T10:50:13.636Z,4284
2016-10-25T10:51:23.339Z,4528
2016-10-25T10:52:32.742Z,4688
2016-10-25T10:53:43.051Z,4828
2016-10-25T10:54:52.781Z,5008
2016-10-25T10:56:02.490Z,5060
2016-10-25T10:57:12.492Z,4928
2016-10-25T10:58:22.493Z,4708
2016-10-25T10:59:32.509Z,4528
2016-10-25T11:00:42.811Z,4444
2016-10-25T11:01:53.112Z,4464
2016-10-25T11:03:03.404Z,4800
2016-10-25T11:04:13.401Z,4744
2016-10-25T11:05:23.923Z,5648
2016-10-25T11:06:34.235Z,5732
2016-10-25T11:07:44.235Z,5756
2016-10-25T11:08:54.528Z,5912
2016-10-25T11:10:04.850Z,5584
2016-10-25T11:11:14.848Z,5516
2016-10-25T11:12:25.143Z,5572
2016-10-25T11:13:35.471Z,5564
2016-10-25T11:14:45.807Z,5656
2016-10-25T11:15:54.884Z,5664
2016-10-25T11:17:04.893Z,6808
2016-10-25T11:18:14.899Z,5612
2016-10-25T11:19:24.897Z,5588
2016-10-25T11:20:34.262Z,5724
2016-10-25T11:21:43.937Z,5504
2016-10-25T11:22:54.241Z,6072
2016-10-25T11:24:04.230Z,5496
2016-10-25T11:25:14.202Z,5624
2016-10-25T11:26:24.189Z,6172
2016-10-25T11:27:34.170Z,5592
2016-10-25T11:28:44.460Z,5192
2016-10-25T11:29:54.754Z,4940
2016-10-25T11:31:04.439Z,4796
2016-10-25T11:32:14.745Z,4572
2016-10-25T11:33:25.039Z,4468
2016-10-25T11:34:34.414Z,4412
2016-10-25T11:35:44.704Z,4336
2016-10-25T11:36:55.004Z,4336
2016-10-25T11:38:05.309Z,4236
2016-10-25T11:39:15.611Z,4256
2016-10-25T11:40:25.901Z,4312
2016-10-25T11:41:35.902Z,4336
2016-10-25T11:42:46.198Z,4324
2016-10-25T11:43:56.180Z,4280
2016-10-25T11:45:06.484Z,4204
2016-10-25T11:46:16.781Z,4124
2016-10-25T11:47:27.079Z,4064
2016-10-25T11:48:37.393Z,4056
2016-10-25T11:49:47.388Z,4076
2016-10-25T11:50:57.692Z,4132
2016-10-25T11:52:07.684Z,4016
2016-10-25T11:53:17.376Z,3796
2016-10-25T11:54:27.387Z,3696
2016-10-25T11:55:37.670Z,3632
2016-10-25T11:56:47.666Z,3596
2016-10-25T11:57:57.644Z,3568
2016-10-25T11:59:07.626Z,3552
2016-10-25T12:00:17.917Z,3528
2016-10-25T12:01:27.928Z,3520
2016-10-25T12:02:37.927Z,3452
2016-10-25T12:03:47.662Z,3396
2016-10-25T12:04:57.954Z,3340
2016-10-25T12:06:08.305Z,3276
2016-10-25T12:07:18.339Z,3204
2016-10-25T12:08:28.638Z,3124
2016-10-25T12:09:38.972Z,3092
2016-10-25T12:10:49.007Z,3112
2016-10-25T12:11:59.347Z,3176
2016-10-25T12:13:09.683Z,3252
2016-10-25T12:14:20.019Z,3328
2016-10-25T12:15:30.377Z,3420
2016-10-25T12:16:40.113Z,3548
2016-10-25T12:17:50.673Z,3728
2016-10-25T12:19:01.055Z,3980
2016-10-25T12:20:11.101Z,4280
2016-10-25T12:21:21.473Z,4568
2016-10-25T12:22:31.899Z,4780
2016-10-25T12:23:42.225Z,4940
2016-10-25T12:24:52.558Z,4972
2016-10-25T12:26:02.610Z,5016
2016-10-25T12:27:12.635Z,5048
2016-10-25T12:28:22.977Z,5060
2016-10-25T12:29:32.366Z,5036
2016-10-25T12:30:42.693Z,5040
2016-10-25T12:31:53.030Z,5048
2016-10-25T12:33:03.355Z,5044
2016-10-25T12:34:13.448Z,5024
2016-10-25T12:35:23.777Z,4976
2016-10-25T12:36:33.224Z,4892
2016-10-25T12:37:42.625Z,4848
2016-10-25T12:38:52.310Z,4800
2016-10-25T12:40:02.011Z,4776
2016-10-25T12:41:12.057Z,4760
2016-10-25T12:42:22.403Z,4756
2016-10-25T12:43:32.404Z,4732
2016-10-25T12:44:42.697Z,4676
2016-10-25T12:45:52.738Z,4628
2016-10-25T12:47:02.768Z,4588
2016-10-25T12:48:12.772Z,4560
2016-10-25T12:49:23.066Z,4564
2016-10-25T12:50:33.095Z,4632
2016-10-25T12:51:43.395Z,4628
2016-10-25T12:52:53.710Z,4588
2016-10-25T12:54:04.043Z,4572
2016-10-25T12:55:13.447Z,4528
2016-10-25T12:56:23.753Z,4448
2016-10-25T12:57:33.761Z,4376
2016-10-25T12:58:44.092Z,4312
2016-10-25T12:59:54.110Z,4268
2016-10-25T13:01:04.461Z,4232
2016-10-25T13:02:14.876Z,4196
2016-10-25T13:03:25.182Z,4156
2016-10-25T13:04:35.213Z,4120
2016-10-25T13:05:45.232Z,4100
2016-10-25T13:06:55.766Z,4080
2016-10-25T13:08:06.084Z,4060
2016-10-25T13:09:16.388Z,4056
2016-10-25T13:10:26.723Z,4044
2016-10-25T13:11:36.709Z,3996
2016-10-25T13:12:46.727Z,3916
2016-10-25T13:13:56.739Z,3820
2016-10-25T13:15:07.069Z,3736
2016-10-25T13:16:17.387Z,3664
2016-10-25T13:17:27.696Z,3620
2016-10-25T13:18:38.001Z,3580
2016-10-25T13:19:48.008Z,3548
2016-10-25T13:20:58.321Z,3524
2016-10-25T13:22:08.677Z,3476
2016-10-25T13:23:18.684Z,3408
2016-10-25T13:24:28.725Z,3320
2016-10-25T13:25:39.072Z,3224
2016-10-25T13:26:49.390Z,3144
2016-10-25T13:27:58.759Z,3088
2016-10-25T13:29:09.068Z,3048
2016-10-25T13:30:19.078Z,3024
2016-10-25T13:31:29.099Z,3008
2016-10-25T13:32:39.401Z,2996
2016-10-25T13:33:49.093Z,2980
2016-10-25T13:34:59.103Z,2948
2016-10-25T13:36:09.108Z,2920
2016-10-25T13:37:19.441Z,2900
2016-10-25T13:38:29.750Z,2884
2016-10-25T13:39:40.074Z,2856
2016-10-25T13:40:49.775Z,2844
2016-10-25T13:41:59.774Z,2848
2016-10-25T13:43:09.770Z,2868
2016-10-25T13:44:20.093Z,2880
2016-10-25T13:45:30.079Z,2868
2016-10-25T13:46:40.364Z,2824
2016-10-25T13:47:50.406Z,2764
2016-10-25T13:49:00.420Z,2720
2016-10-25T13:50:10.109Z,2688
2016-10-25T13:51:20.415Z,2656
2016-10-25T13:52:30.094Z,2656
2016-10-25T13:53:40.114Z,2652
2016-10-25T13:54:50.407Z,2668
2016-10-25T13:56:00.117Z,2696
2016-10-25T13:57:10.433Z,2736
2016-10-25T13:58:20.791Z,2764
2016-10-25T13:59:30.793Z,2760
2016-10-25T14:00:41.091Z,2708
2016-10-25T14:01:51.410Z,2624
2016-10-25T14:03:01.883Z,2516
2016-10-25T14:04:12.195Z,2436
2016-10-25T14:05:22.184Z,2364
2016-10-25T14:06:32.189Z,2308
2016-10-25T14:07:42.209Z,2252
2016-10-25T14:08:52.197Z,2196
2016-10-25T14:10:01.299Z,2160
2016-10-25T14:11:11.010Z,2140
2016-10-25T14:12:21.319Z,2132
2016-10-25T14:13:31.666Z,2128
2016-10-25T14:14:41.971Z,2128
2016-10-25T14:15:52.000Z,2124
2016-10-25T14:17:01.713Z,2112
2016-10-25T14:18:11.714Z,2092
2016-10-25T14:19:21.406Z,2056
2016-10-25T14:20:31.106Z,1996
2016-10-25T14:21:41.429Z,1940
2016-10-25T14:22:51.750Z,1884
2016-10-25T14:24:02.047Z,1840
2016-10-25T14:25:12.370Z,1800
2016-10-25T14:26:22.364Z,1752
2016-10-25T14:27:32.065Z,1692
2016-10-25T14:28:42.338Z,1624
2016-10-25T14:29:52.642Z,1532
2016-10-25T14:31:02.947Z,1440
2016-10-25T14:32:12.944Z,1352
2016-10-25T14:33:23.261Z,1272
2016-10-25T14:34:33.278Z,1180
2016-10-25T14:35:43.272Z,1080
2016-10-25T14:36:53.585Z,968
2016-10-25T14:38:03.897Z,860
2016-10-25T14:39:13.889Z,776
2016-10-25T14:40:23.892Z,720
2016-10-25T14:41:34.193Z,684
2016-10-25T14:42:44.481Z,672
2016-10-25T14:43:54.830Z,676
2016-10-25T14:45:04.827Z,692
2016-10-25T14:46:14.828Z,712
2016-10-25T14:47:24.516Z,724
2016-10-25T14:48:34.496Z,736
2016-10-25T14:49:44.498Z,748
2016-10-25T14:50:54.495Z,752
2016-10-25T14:52:04.498Z,752
2016-10-25T14:53:14.809Z,740
2016-10-25T14:54:24.820Z,708
2016-10-25T14:55:34.797Z,672
2016-10-25T14:56:45.109Z,632
2016-10-25T14:57:55.415Z,592
2016-10-25T14:59:05.458Z,556
2016-10-25T15:00:15.179Z,516
2016-10-25T15:01:25.476Z,480
2016-10-25T15:02:35.464Z,448
2016-10-25T15:03:45.474Z,424
2016-10-25T15:04:55.782Z,408
2016-10-25T15:06:05.476Z,396
2016-10-25T15:07:15.494Z,388
2016-10-25T15:08:25.494Z,384
2016-10-25T15:09:35.816Z,372
2016-10-25T15:10:45.508Z,368
2016-10-25T15:11:55.816Z,360
2016-10-25T15:13:06.128Z,356
2016-10-25T15:14:15.835Z,348
2016-10-25T15:15:25.837Z,340
2016-10-25T15:16:36.153Z,332
2016-10-25T15:17:46.450Z,324
2016-10-25T15:18:56.780Z,308
2016-10-25T15:20:07.098Z,296
2016-10-25T15:21:17.418Z,276
2016-10-25T15:22:27.752Z,248
2016-10-25T15:23:37.771Z,220
2016-10-25T15:24:47.765Z,192
2016-10-25T15:25:58.059Z,160
2016-10-25T15:27:08.377Z,144
2016-10-25T15:28:18.416Z,124
2016-10-25T15:29:28.742Z,112
2016-10-25T15:30:39.044Z,100
2016-10-25T15:31:49.051Z,88
2016-10-25T15:32:59.056Z,80
2016-10-25T15:34:09.389Z,72
2016-10-25T15:35:19.705Z,64
2016-10-25T15:36:29.389Z,60
2016-10-25T15:37:39.407Z,56
2016-10-25T15:38:49.445Z,52
2016-10-25T15:39:59.433Z,48
2016-10-25T15:41:09.744Z,44
2016-10-25T15:42:19.762Z,40
2016-10-25T15:43:30.132Z,40
2016-10-25T15:44:40.131Z,40
2016-10-25T15:45:50.444Z,36
2016-10-25T15:47:00.432Z,32
2016-10-25T15:48:10.456Z,28
2016-10-25T15:49:20.791Z,24
2016-10-25T15:50:31.106Z,24
2016-10-25T15:51:40.800Z,20
2016-10-25T15:52:51.121Z,20
2016-10-25T15:54:00.810Z,12
2016-10-25T15:55:10.859Z,12
2016-10-25T15:56:21.160Z,12
2016-10-25T15:57:31.464Z,8
2016-10-25T15:58:41.551Z,4
2016-10-25T15:59:51.873Z,4
2016-10-25T16:01:02.216Z,4
2016-10-25T16:02:11.907Z,4
2016-10-25T16:03:22.229Z,4
2016-10-25T16:04:31.286Z,4
2016-10-25T16:05:41.588Z,0
2016-10-25T16:06:51.579Z,4
2016-10-25T16:08:01.876Z,4
2016-10-25T16:09:11.872Z,4
2016-10-25T16:10:22.174Z,0
2016-10-25T16:11:32.551Z,0
2016-10-25T16:12:42.890Z,0
2016-10-25T16:13:52.613Z,0
2016-10-25T16:15:02.625Z,0
2016-10-25T16:16:12.619Z,0
2016-10-25T16:17:22.951Z,0
2016-10-25T16:18:32.960Z,0
2016-10-25T16:19:42.973Z,0
2016-10-25T16:20:52.993Z,0
2016-10-25T16:22:03.006Z,0
2016-10-25T16:23:28.803Z,0
2016-10-25T16:24:38.796Z,0
2016-10-25T16:25:48.785Z,0
2016-10-25T16:26:59.097Z,0
2016-10-25T16:28:09.080Z,0
2016-10-25T16:29:19.374Z,0
2016-10-25T16:30:29.097Z,0
2016-10-25T16:31:39.479Z,0
2016-10-25T16:32:49.782Z,0
2016-10-25T16:34:00.147Z,0
2016-10-25T16:35:10.139Z,0
2016-10-25T16:36:20.130Z,0
2016-10-25T16:37:30.447Z,0
2016-10-25T16:38:40.796Z,0
2016-10-25T16:39:50.799Z,0
2016-10-25T16:41:01.119Z,0
2016-10-25T16:42:11.131Z,0
2016-10-25T16:43:21.134Z,0
2016-10-25T16:44:31.451Z,0